Chassell, Michigan
Current Conditions -  °F | °C
As of 3:32 AM on Monday 24 Nov 2014 (Local Time) from KCMX Reporting Station
Moderate Fog Moderate Fog  
Wind Chill:   Ceiling: 200
Heat Index:   Visibility: 0.25mi
Dew Point:   Wind: 9mph
Humidity: 92%   Direction: 340°NNW
Pressure: 29.08"   Gusts: NA
Location:  47.03°N, 88.53°W
Report Text: KCMX 240832Z AUTO 34008KT 1/4SM FG VV002 06/04 A2908 RMK AO2 T00560044
Loading
Personal Weather Stations






























Interactive Weather Map New forecast layout! Learn more

10-Day Weather Forecast

Advertisements
Track Severe Weather on mobile